sensor_id;sensor_type;location;lat;lon;timestamp;pressure;altitude;pressure_sealevel;temperature;humidity
71915;BME280;60387;49.994;14.660;2022-08-18T00:02:23;97160.44;;;24.85;37.85
71915;BME280;60387;49.994;14.660;2022-08-18T00:04:57;97158.13;;;24.80;37.74
71915;BME280;60387;49.994;14.660;2022-08-18T00:07:31;97162.50;;;24.74;37.85
71915;BME280;60387;49.994;14.660;2022-08-18T00:10:06;97157.81;;;24.68;38.03
71915;BME280;60387;49.994;14.660;2022-08-18T00:12:40;97149.91;;;24.63;37.75
71915;BME280;60387;49.994;14.660;2022-08-18T00:15:16;97144.00;;;24.54;37.81
71915;BME280;60387;49.994;14.660;2022-08-18T00:17:50;97143.66;;;24.48;38.17
71915;BME280;60387;49.994;14.660;2022-08-18T00:20:24;97153.94;;;24.44;38.40
71915;BME280;60387;49.994;14.660;2022-08-18T00:22:57;97146.84;;;24.40;38.28
71915;BME280;60387;49.994;14.660;2022-08-18T00:25:30;97152.47;;;24.33;38.38
71915;BME280;60387;49.994;14.660;2022-08-18T00:28:04;97157.22;;;24.29;38.39
71915;BME280;60387;49.994;14.660;2022-08-18T00:30:37;97151.31;;;24.23;38.53
71915;BME280;60387;49.994;14.660;2022-08-18T00:33:10;97152.13;;;24.17;38.24
71915;BME280;60387;49.994;14.660;2022-08-18T00:35:44;97145.03;;;24.12;38.43
71915;BME280;60387;49.994;14.660;2022-08-18T00:38:17;97148.59;;;24.09;38.27
71915;BME280;60387;49.994;14.660;2022-08-18T00:40:53;97138.34;;;24.03;38.30
71915;BME280;60387;49.994;14.660;2022-08-18T00:43:46;97135.22;;;24.01;38.59
71915;BME280;60387;49.994;14.660;2022-08-18T00:46:26;97128.13;;;23.93;38.69
71915;BME280;60387;49.994;14.660;2022-08-18T00:49:00;97137.22;;;23.90;42.28
71915;BME280;60387;49.994;14.660;2022-08-18T00:51:46;97136.81;;;23.91;42.61
71915;BME280;60387;49.994;14.660;2022-08-18T00:54:25;97136.00;;;23.98;41.68
71915;BME280;60387;49.994;14.660;2022-08-18T00:57:03;97145.44;;;24.11;41.63
71915;BME280;60387;49.994;14.660;2022-08-18T01:02:20;97146.50;;;24.31;40.96
71915;BME280;60387;49.994;14.660;2022-08-18T01:04:57;97154.00;;;24.37;41.13
71915;BME280;60387;49.994;14.660;2022-08-18T01:07:35;97153.94;;;24.44;40.84
71915;BME280;60387;49.994;14.660;2022-08-18T01:10:09;97146.03;;;24.50;41.57
71915;BME280;60387;49.994;14.660;2022-08-18T01:12:48;97143.63;;;24.59;41.22
71915;BME280;60387;49.994;14.660;2022-08-18T01:15:23;97136.88;;;24.60;40.70
71915;BME280;60387;49.994;14.660;2022-08-18T01:18:00;97140.78;;;24.66;41.64
71915;BME280;60387;49.994;14.660;2022-08-18T01:23:15;97146.28;;;24.69;41.72
71915;BME280;60387;49.994;14.660;2022-08-18T01:25:50;97139.97;;;24.69;41.69
71915;BME280;60387;49.994;14.660;2022-08-18T01:28:29;97147.06;;;24.77;41.89
71915;BME280;60387;49.994;14.660;2022-08-18T01:31:05;97133.19;;;24.77;41.54
71915;BME280;60387;49.994;14.660;2022-08-18T01:33:41;97130.44;;;24.77;42.14
71915;BME280;60387;49.994;14.660;2022-08-18T01:36:18;97132.38;;;24.80;41.24
71915;BME280;60387;49.994;14.660;2022-08-18T01:38:52;97135.16;;;24.80;41.22
71915;BME280;60387;49.994;14.660;2022-08-18T01:41:26;97133.94;;;24.81;40.80
71915;BME280;60387;49.994;14.660;2022-08-18T01:44:00;97129.22;;;24.81;41.01
71915;BME280;60387;49.994;14.660;2022-08-18T01:46:34;97121.28;;;24.80;41.15
71915;BME280;60387;49.994;14.660;2022-08-18T01:49:09;97120.50;;;24.79;40.94
71915;BME280;60387;49.994;14.660;2022-08-18T01:51:42;97113.34;;;24.82;41.69
71915;BME280;60387;49.994;14.660;2022-08-18T01:54:15;97122.88;;;24.81;41.58
71915;BME280;60387;49.994;14.660;2022-08-18T01:56:49;97121.25;;;24.83;41.15
71915;BME280;60387;49.994;14.660;2022-08-18T01:59:22;97122.06;;;24.84;41.34
71915;BME280;60387;49.994;14.660;2022-08-18T02:01:55;97103.84;;;24.83;41.00
71915;BME280;60387;49.994;14.660;2022-08-18T02:04:31;97100.69;;;24.81;41.41
71915;BME280;60387;49.994;14.660;2022-08-18T02:07:09;97111.00;;;24.80;41.79
71915;BME280;60387;49.994;14.660;2022-08-18T02:09:43;97116.13;;;24.82;41.00
71915;BME280;60387;49.994;14.660;2022-08-18T02:12:16;97116.56;;;24.80;41.12
71915;BME280;60387;49.994;14.660;2022-08-18T02:14:49;97124.06;;;24.80;41.14
71915;BME280;60387;49.994;14.660;2022-08-18T02:17:22;97126.09;;;24.76;41.13
71915;BME280;60387;49.994;14.660;2022-08-18T02:19:56;97123.69;;;24.78;40.74
71915;BME280;60387;49.994;14.660;2022-08-18T02:22:29;97124.47;;;24.75;41.50
71915;BME280;60387;49.994;14.660;2022-08-18T02:25:03;97135.16;;;24.76;40.85
71915;BME280;60387;49.994;14.660;2022-08-18T02:27:37;97128.44;;;24.74;40.54
71915;BME280;60387;49.994;14.660;2022-08-18T02:30:14;97126.88;;;24.73;40.86
71915;BME280;60387;49.994;14.660;2022-08-18T02:32:48;97138.78;;;24.70;40.90
71915;BME280;60387;49.994;14.660;2022-08-18T02:35:21;97129.31;;;24.64;40.46
71915;BME280;60387;49.994;14.660;2022-08-18T02:37:58;97130.91;;;24.61;40.47
71915;BME280;60387;49.994;14.660;2022-08-18T02:40:33;97133.72;;;24.58;40.92
71915;BME280;60387;49.994;14.660;2022-08-18T02:43:08;97129.00;;;24.48;41.96
71915;BME280;60387;49.994;14.660;2022-08-18T02:45:41;97139.78;;;24.32;41.73
71915;BME280;60387;49.994;14.660;2022-08-18T02:48:15;97120.88;;;24.16;41.08
71915;BME280;60387;49.994;14.660;2022-08-18T02:50:48;97126.47;;;24.02;41.40
71915;BME280;60387;49.994;14.660;2022-08-18T02:53:21;97132.09;;;23.92;42.71
71915;BME280;60387;49.994;14.660;2022-08-18T02:56:04;97123.03;;;23.77;42.17
71915;BME280;60387;49.994;14.660;2022-08-18T02:58:37;97121.50;;;23.66;43.87
71915;BME280;60387;49.994;14.660;2022-08-18T03:01:11;97120.34;;;23.49;42.89
71915;BME280;60387;49.994;14.660;2022-08-18T03:03:44;97119.59;;;23.39;42.29
71915;BME280;60387;49.994;14.660;2022-08-18T03:06:19;97119.97;;;23.30;42.76
71915;BME280;60387;49.994;14.660;2022-08-18T03:08:53;97117.25;;;23.20;43.28
71915;BME280;60387;49.994;14.660;2022-08-18T03:11:28;97118.00;;;23.13;42.67
71915;BME280;60387;49.994;14.660;2022-08-18T03:14:02;97137.75;;;23.08;42.50
71915;BME280;60387;49.994;14.660;2022-08-18T03:16:38;97133.81;;;23.02;42.60
71915;BME280;60387;49.994;14.660;2022-08-18T03:19:11;97134.63;;;22.96;42.31
71915;BME280;60387;49.994;14.660;2022-08-18T03:21:46;97124.38;;;22.89;43.00
71915;BME280;60387;49.994;14.660;2022-08-18T03:24:20;97126.72;;;22.80;42.83
71915;BME280;60387;49.994;14.660;2022-08-18T03:26:55;97128.31;;;22.74;42.67
71915;BME280;60387;49.994;14.660;2022-08-18T03:29:28;97129.47;;;22.66;42.62
71915;BME280;60387;49.994;14.660;2022-08-18T03:32:03;97136.16;;;22.58;43.14
71915;BME280;60387;49.994;14.660;2022-08-18T03:34:37;97130.25;;;22.53;43.23
71915;BME280;60387;49.994;14.660;2022-08-18T03:37:10;97133.81;;;22.46;43.87
71915;BME280;60387;49.994;14.660;2022-08-18T03:39:43;97136.13;;;22.41;43.32
71915;BME280;60387;49.994;14.660;2022-08-18T03:42:17;97139.25;;;22.36;43.61
71915;BME280;60387;49.994;14.660;2022-08-18T03:44:50;97134.53;;;22.29;43.15
71915;BME280;60387;49.994;14.660;2022-08-18T03:47:23;97132.94;;;22.25;44.28
71915;BME280;60387;49.994;14.660;2022-08-18T03:49:57;97135.28;;;22.16;43.99
71915;BME280;60387;49.994;14.660;2022-08-18T03:52:30;97137.59;;;22.07;45.47
71915;BME280;60387;49.994;14.660;2022-08-18T03:55:04;97136.00;;;22.02;46.80
71915;BME280;60387;49.994;14.660;2022-08-18T03:57:38;97135.56;;;21.93;49.26
71915;BME280;60387;49.994;14.660;2022-08-18T04:00:12;97130.06;;;21.86;47.94
71915;BME280;60387;49.994;14.660;2022-08-18T04:02:45;97134.75;;;21.79;47.55
71915;BME280;60387;49.994;14.660;2022-08-18T04:05:19;97138.66;;;21.74;47.18
71915;BME280;60387;49.994;14.660;2022-08-18T04:07:52;97139.81;;;21.66;46.00
71915;BME280;60387;49.994;14.660;2022-08-18T04:10:25;97139.38;;;21.64;46.25
71915;BME280;60387;49.994;14.660;2022-08-18T04:12:58;97137.41;;;21.61;46.21
71915;BME280;60387;49.994;14.660;2022-08-18T04:15:32;97141.34;;;21.60;45.85
71915;BME280;60387;49.994;14.660;2022-08-18T04:18:05;97146.06;;;21.63;46.00
71915;BME280;60387;49.994;14.660;2022-08-18T04:20:38;97138.63;;;21.67;45.70
71915;BME280;60387;49.994;14.660;2022-08-18T04:23:11;97144.19;;;21.78;45.52
71915;BME280;60387;49.994;14.660;2022-08-18T04:25:45;97158.00;;;21.81;45.55
71915;BME280;60387;49.994;14.660;2022-08-18T04:28:18;97158.38;;;21.83;45.54
71915;BME280;60387;49.994;14.660;2022-08-18T04:30:52;97150.94;;;21.87;45.42
71915;BME280;60387;49.994;14.660;2022-08-18T04:33:26;97152.94;;;21.97;45.30
71915;BME280;60387;49.994;14.660;2022-08-18T04:36:06;97161.66;;;22.06;45.24
71915;BME280;60387;49.994;14.660;2022-08-18T04:38:40;97161.69;;;22.13;44.97
71915;BME280;60387;49.994;14.660;2022-08-18T04:41:15;97162.50;;;22.24;44.75
71915;BME280;60387;49.994;14.660;2022-08-18T04:43:48;97158.22;;;22.44;45.06
71915;BME280;60387;49.994;14.660;2022-08-18T04:46:21;97154.72;;;22.68;45.45
71915;BME280;60387;49.994;14.660;2022-08-18T04:48:57;97156.72;;;23.03;44.62
71915;BME280;60387;49.994;14.660;2022-08-18T04:51:30;97159.88;;;23.36;44.35
71915;BME280;60387;49.994;14.660;2022-08-18T04:54:03;97160.19;;;23.69;43.82
71915;BME280;60387;49.994;14.660;2022-08-18T04:56:38;97170.81;;;23.92;43.65
71915;BME280;60387;49.994;14.660;2022-08-18T04:59:12;97162.88;;;24.04;43.63
71915;BME280;60387;49.994;14.660;2022-08-18T05:01:46;97168.41;;;24.08;43.47
71915;BME280;60387;49.994;14.660;2022-08-18T05:04:19;97162.06;;;24.07;43.70
71915;BME280;60387;49.994;14.660;2022-08-18T05:06:52;97162.84;;;24.08;43.37
71915;BME280;60387;49.994;14.660;2022-08-18T05:09:26;97154.91;;;24.13;43.60
71915;BME280;60387;49.994;14.660;2022-08-18T05:12:00;97170.66;;;24.30;43.50
71915;BME280;60387;49.994;14.660;2022-08-18T05:14:34;97165.41;;;24.50;43.40
71915;BME280;60387;49.994;14.660;2022-08-18T05:17:07;97178.31;;;24.74;43.14
71915;BME280;60387;49.994;14.660;2022-08-18T05:19:41;97161.19;;;24.93;43.00
71915;BME280;60387;49.994;14.660;2022-08-18T05:22:14;97167.75;;;25.13;43.07
71915;BME280;60387;49.994;14.660;2022-08-18T05:24:47;97156.56;;;25.27;43.05
71915;BME280;60387;49.994;14.660;2022-08-18T05:27:21;97169.41;;;25.47;42.76
71915;BME280;60387;49.994;14.660;2022-08-18T05:29:54;97157.78;;;25.63;42.80
71915;BME280;60387;49.994;14.660;2022-08-18T05:32:27;97157.91;;;25.86;43.00
71915;BME280;60387;49.994;14.660;2022-08-18T05:35:06;97166.75;;;26.11;42.70
71915;BME280;60387;49.994;14.660;2022-08-18T05:40:16;97158.59;;;26.60;42.42
71915;BME280;60387;49.994;14.660;2022-08-18T05:42:49;97170.56;;;26.84;41.67
71915;BME280;60387;49.994;14.660;2022-08-18T05:45:23;97172.03;;;26.92;41.64
71915;BME280;60387;49.994;14.660;2022-08-18T05:47:58;97170.88;;;26.89;41.69
71915;BME280;60387;49.994;14.660;2022-08-18T05:50:33;97170.66;;;26.77;41.66
71915;BME280;60387;49.994;14.660;2022-08-18T05:53:16;97177.16;;;26.67;41.33
71915;BME280;60387;49.994;14.660;2022-08-18T05:56:00;97173.22;;;26.64;41.87
71915;BME280;60387;49.994;14.660;2022-08-18T05:58:41;97175.63;;;26.62;41.96
71915;BME280;60387;49.994;14.660;2022-08-18T06:01:28;97172.50;;;26.60;41.63
71915;BME280;60387;49.994;14.660;2022-08-18T06:04:13;97167.00;;;26.57;41.91
71915;BME280;60387;49.994;14.660;2022-08-18T06:06:48;97175.63;;;26.62;42.63
71915;BME280;60387;49.994;14.660;2022-08-18T06:12:14;97182.63;;;26.74;41.98
71915;BME280;60387;49.994;14.660;2022-08-18T06:14:51;97169.94;;;26.73;41.67
71915;BME280;60387;49.994;14.660;2022-08-18T06:23:21;97187.38;;;26.73;42.14
71915;BME280;60387;49.994;14.660;2022-08-18T06:26:19;97181.91;;;26.66;42.41
71915;BME280;60387;49.994;14.660;2022-08-18T06:37:41;97202.75;;;26.55;43.28
71915;BME280;60387;49.994;14.660;2022-08-18T06:40:17;97204.75;;;26.51;43.87
71915;BME280;60387;49.994;14.660;2022-08-18T06:42:50;97215.50;;;26.49;43.27
71915;BME280;60387;49.994;14.660;2022-08-18T06:45:29;97213.16;;;26.44;44.25
71915;BME280;60387;49.994;14.660;2022-08-18T06:48:11;97215.56;;;26.42;43.85
71915;BME280;60387;49.994;14.660;2022-08-18T06:50:51;97214.78;;;26.41;43.20
71915;BME280;60387;49.994;14.660;2022-08-18T06:53:51;97216.78;;;26.41;43.33
71915;BME280;60387;49.994;14.660;2022-08-18T06:59:27;97210.69;;;26.53;44.04
71915;BME280;60387;49.994;14.660;2022-08-18T07:02:24;97206.88;;;26.70;45.20
71915;BME280;60387;49.994;14.660;2022-08-18T07:05:07;97212.66;;;26.82;44.10
71915;BME280;60387;49.994;14.660;2022-08-18T07:08:05;97226.06;;;26.91;43.97
71915;BME280;60387;49.994;14.660;2022-08-18T07:10:47;97228.25;;;27.03;43.96
71915;BME280;60387;49.994;14.660;2022-08-18T07:13:27;97226.44;;;27.19;43.83
71915;BME280;60387;49.994;14.660;2022-08-18T07:19:04;97231.91;;;27.49;43.82
71915;BME280;60387;49.994;14.660;2022-08-18T07:21:39;97234.09;;;27.61;43.60
71915;BME280;60387;49.994;14.660;2022-08-18T07:24:29;97241.03;;;27.72;43.16
71915;BME280;60387;49.994;14.660;2022-08-18T07:27:05;97243.66;;;27.83;42.58
71915;BME280;60387;49.994;14.660;2022-08-18T07:29:57;97238.59;;;27.97;42.18
71915;BME280;60387;49.994;14.660;2022-08-18T07:32:35;97234.69;;;28.14;42.02
71915;BME280;60387;49.994;14.660;2022-08-18T07:35:14;97232.41;;;28.29;41.93
71915;BME280;60387;49.994;14.660;2022-08-18T07:40:46;97233.31;;;28.65;41.27
71915;BME280;60387;49.994;14.660;2022-08-18T07:43:52;97244.25;;;28.91;41.16
71915;BME280;60387;49.994;14.660;2022-08-18T07:46:34;97244.34;;;29.23;40.86
71915;BME280;60387;49.994;14.660;2022-08-18T07:49:25;97243.31;;;29.49;40.71
71915;BME280;60387;49.994;14.660;2022-08-18T07:52:07;97248.03;;;29.68;40.42
71915;BME280;60387;49.994;14.660;2022-08-18T07:54:49;97243.75;;;29.80;40.16
71915;BME280;60387;49.994;14.660;2022-08-18T08:00:23;97241.94;;;30.46;38.57
71915;BME280;60387;49.994;14.660;2022-08-18T08:03:18;97242.47;;;31.11;38.79
71915;BME280;60387;49.994;14.660;2022-08-18T08:08:39;97247.09;;;32.35;35.90
71915;BME280;60387;49.994;14.660;2022-08-18T08:11:24;97239.16;;;32.76;36.01
71915;BME280;60387;49.994;14.660;2022-08-18T08:17:22;97242.97;;;33.13;33.18
71915;BME280;60387;49.994;14.660;2022-08-18T08:29:27;97241.50;;;35.13;32.30
71915;BME280;60387;49.994;14.660;2022-08-18T08:32:15;97224.28;;;35.52;32.99
71915;BME280;60387;49.994;14.660;2022-08-18T08:34:56;97213.59;;;35.89;32.41
71915;BME280;60387;49.994;14.660;2022-08-18T08:37:50;97220.06;;;36.04;30.75
71915;BME280;60387;49.994;14.660;2022-08-18T08:40:44;97218.22;;;36.01;30.36
71915;BME280;60387;49.994;14.660;2022-08-18T08:43:33;97209.19;;;36.11;30.61
71915;BME280;60387;49.994;14.660;2022-08-18T08:46:14;97214.44;;;36.27;28.79
71915;BME280;60387;49.994;14.660;2022-08-18T08:48:55;97214.34;;;36.36;29.53
71915;BME280;60387;49.994;14.660;2022-08-18T08:51:36;97217.28;;;36.56;29.20
71915;BME280;60387;49.994;14.660;2022-08-18T08:54:26;97210.72;;;36.88;28.97
71915;BME280;60387;49.994;14.660;2022-08-18T08:57:02;97212.09;;;37.07;27.37
71915;BME280;60387;49.994;14.660;2022-08-18T08:59:38;97203.97;;;37.00;27.73
71915;BME280;60387;49.994;14.660;2022-08-18T09:02:19;97202.53;;;36.90;27.29
71915;BME280;60387;49.994;14.660;2022-08-18T09:05:08;97197.09;;;36.72;26.44
71915;BME280;60387;49.994;14.660;2022-08-18T09:14:04;97173.50;;;36.46;27.34
71915;BME280;60387;49.994;14.660;2022-08-18T09:20:17;97161.47;;;36.60;26.89
71915;BME280;60387;49.994;14.660;2022-08-18T09:23:03;97158.31;;;36.58;25.45
71915;BME280;60387;49.994;14.660;2022-08-18T09:28:21;97143.06;;;36.12;26.63
71915;BME280;60387;49.994;14.660;2022-08-18T09:39:19;97133.94;;;35.79;26.10
71915;BME280;60387;49.994;14.660;2022-08-18T09:41:57;97127.50;;;35.55;26.68
71915;BME280;60387;49.994;14.660;2022-08-18T09:53:31;97112.53;;;35.49;27.66
71915;BME280;60387;49.994;14.660;2022-08-18T09:56:05;97112.47;;;35.58;27.58
71915;BME280;60387;49.994;14.660;2022-08-18T09:58:48;97113.16;;;35.44;27.50
71915;BME280;60387;49.994;14.660;2022-08-18T10:01:33;97100.94;;;35.24;27.65
71915;BME280;60387;49.994;14.660;2022-08-18T10:06:47;97104.03;;;34.94;28.33
71915;BME280;60387;49.994;14.660;2022-08-18T10:12:07;97100.06;;;34.77;29.07
71915;BME280;60387;49.994;14.660;2022-08-18T10:45:47;97068.50;;;35.28;29.39
71915;BME280;60387;49.994;14.660;2022-08-18T10:48:30;97071.72;;;35.36;28.38
71915;BME280;60387;49.994;14.660;2022-08-18T10:51:23;97062.13;;;35.28;28.33
71915;BME280;60387;49.994;14.660;2022-08-18T10:56:56;97070.16;;;35.12;29.15
71915;BME280;60387;49.994;14.660;2022-08-18T11:05:09;97084.22;;;35.21;29.28
71915;BME280;60387;49.994;14.660;2022-08-18T11:07:47;97086.69;;;35.28;28.35
71915;BME280;60387;49.994;14.660;2022-08-18T11:10:34;97071.25;;;35.37;28.78
71915;BME280;60387;49.994;14.660;2022-08-18T11:13:18;97085.72;;;35.54;28.84
71915;BME280;60387;49.994;14.660;2022-08-18T11:16:41;97082.47;;;35.70;28.51
71915;BME280;60387;49.994;14.660;2022-08-18T11:19:11;97092.97;;;35.69;28.43
71915;BME280;60387;49.994;14.660;2022-08-18T11:21:47;97103.97;;;35.67;28.06
71915;BME280;60387;49.994;14.660;2022-08-18T11:24:26;97085.50;;;35.66;28.74
71915;BME280;60387;49.994;14.660;2022-08-18T11:27:03;97075.44;;;35.65;28.20
71915;BME280;60387;49.994;14.660;2022-08-18T11:29:38;97074.00;;;35.70;28.47
71915;BME280;60387;49.994;14.660;2022-08-18T11:32:26;97075.81;;;35.82;28.79
71915;BME280;60387;49.994;14.660;2022-08-18T11:43:04;97075.91;;;36.02;27.63
71915;BME280;60387;49.994;14.660;2022-08-18T11:48:18;97075.50;;;35.80;28.71
71915;BME280;60387;49.994;14.660;2022-08-18T11:53:34;97067.41;;;36.25;28.58
71915;BME280;60387;49.994;14.660;2022-08-18T11:58:56;97079.41;;;37.13;26.73
71915;BME280;60387;49.994;14.660;2022-08-18T12:01:48;97076.44;;;37.22;26.83
71915;BME280;60387;49.994;14.660;2022-08-18T12:04:31;97087.97;;;37.04;26.46
71915;BME280;60387;49.994;14.660;2022-08-18T12:07:13;97079.06;;;36.76;26.83
71915;BME280;60387;49.994;14.660;2022-08-18T12:12:48;97059.69;;;36.84;26.88
71915;BME280;60387;49.994;14.660;2022-08-18T12:15:29;97072.69;;;37.10;25.87
71915;BME280;60387;49.994;14.660;2022-08-18T12:18:02;97068.69;;;37.17;24.80
71915;BME280;60387;49.994;14.660;2022-08-18T12:20:36;97071.00;;;37.18;24.08
71915;BME280;60387;49.994;14.660;2022-08-18T12:23:09;97059.66;;;36.98;24.59
71915;BME280;60387;49.994;14.660;2022-08-18T12:25:45;97054.72;;;36.79;23.92
71915;BME280;60387;49.994;14.660;2022-08-18T12:28:19;97058.66;;;36.52;24.46
71915;BME280;60387;49.994;14.660;2022-08-18T12:30:52;97040.16;;;36.22;24.70
71915;BME280;60387;49.994;14.660;2022-08-18T12:33:26;97046.53;;;36.08;25.38
71915;BME280;60387;49.994;14.660;2022-08-18T12:36:00;97041.00;;;35.99;24.36
71915;BME280;60387;49.994;14.660;2022-08-18T12:38:34;97031.41;;;36.06;24.82
71915;BME280;60387;49.994;14.660;2022-08-18T12:41:07;97031.41;;;36.06;24.58
71915;BME280;60387;49.994;14.660;2022-08-18T12:43:40;97036.81;;;35.95;24.90
71915;BME280;60387;49.994;14.660;2022-08-18T12:46:14;97024.63;;;35.74;24.66
71915;BME280;60387;49.994;14.660;2022-08-18T12:48:47;97010.31;;;35.63;25.50
71915;BME280;60387;49.994;14.660;2022-08-18T12:51:21;96998.41;;;35.68;25.57
71915;BME280;60387;49.994;14.660;2022-08-18T12:53:54;96994.69;;;35.77;25.51
71915;BME280;60387;49.994;14.660;2022-08-18T12:56:29;96996.56;;;35.94;25.50
71915;BME280;60387;49.994;14.660;2022-08-18T12:59:04;96986.84;;;36.10;24.99
71915;BME280;60387;49.994;14.660;2022-08-18T13:01:39;96978.09;;;36.22;25.23
71915;BME280;60387;49.994;14.660;2022-08-18T13:04:12;96989.06;;;36.35;24.51
71915;BME280;60387;49.994;14.660;2022-08-18T13:06:48;96981.38;;;36.50;24.57
71915;BME280;60387;49.994;14.660;2022-08-18T13:09:22;96985.72;;;36.65;24.78
71915;BME280;60387;49.994;14.660;2022-08-18T13:11:56;96991.13;;;36.83;23.95
71915;BME280;60387;49.994;14.660;2022-08-18T13:14:29;96994.13;;;36.94;24.07
71915;BME280;60387;49.994;14.660;2022-08-18T13:17:03;96987.19;;;36.95;23.81
71915;BME280;60387;49.994;14.660;2022-08-18T13:19:39;96995.59;;;36.90;23.93
71915;BME280;60387;49.994;14.660;2022-08-18T13:22:13;96988.50;;;36.80;24.02
71915;BME280;60387;49.994;14.660;2022-08-18T13:24:46;96988.84;;;36.67;24.54
71915;BME280;60387;49.994;14.660;2022-08-18T13:27:19;96980.38;;;36.67;24.03
71915;BME280;60387;49.994;14.660;2022-08-18T13:29:55;96972.75;;;36.73;24.68
71915;BME280;60387;49.994;14.660;2022-08-18T13:32:29;96973.56;;;36.74;24.07
71915;BME280;60387;49.994;14.660;2022-08-18T13:35:03;96973.91;;;36.81;23.91
71915;BME280;60387;49.994;14.660;2022-08-18T13:37:37;96978.00;;;36.80;23.48
71915;BME280;60387;49.994;14.660;2022-08-18T13:40:10;96989.97;;;36.75;24.35
71915;BME280;60387;49.994;14.660;2022-08-18T13:42:47;96975.22;;;36.66;24.02
71915;BME280;60387;49.994;14.660;2022-08-18T13:45:21;96977.63;;;36.58;24.27
71915;BME280;60387;49.994;14.660;2022-08-18T13:47:55;96977.84;;;36.55;24.56
71915;BME280;60387;49.994;14.660;2022-08-18T13:50:28;96960.47;;;36.42;23.87
71915;BME280;60387;49.994;14.660;2022-08-18T13:53:02;96968.66;;;36.40;24.64
71915;BME280;60387;49.994;14.660;2022-08-18T13:55:35;96973.66;;;36.50;24.90
71915;BME280;60387;49.994;14.660;2022-08-18T13:58:08;96966.34;;;36.58;24.72
71915;BME280;60387;49.994;14.660;2022-08-18T14:00:42;96974.03;;;36.72;24.37
71915;BME280;60387;49.994;14.660;2022-08-18T14:03:15;96972.34;;;36.80;23.91
71915;BME280;60387;49.994;14.660;2022-08-18T14:05:49;96971.94;;;36.87;24.30
71915;BME280;60387;49.994;14.660;2022-08-18T14:08:23;96974.56;;;36.91;23.72
71915;BME280;60387;49.994;14.660;2022-08-18T14:10:59;96961.47;;;36.93;24.03
71915;BME280;60387;49.994;14.660;2022-08-18T14:13:33;96957.81;;;36.87;23.96
71915;BME280;60387;49.994;14.660;2022-08-18T14:16:06;96963.09;;;36.80;23.95
71915;BME280;60387;49.994;14.660;2022-08-18T14:18:39;96963.25;;;36.56;24.19
71915;BME280;60387;49.994;14.660;2022-08-18T14:21:13;96959.78;;;36.32;23.94
71915;BME280;60387;49.994;14.660;2022-08-18T14:23:46;96963.72;;;36.20;24.58
71915;BME280;60387;49.994;14.660;2022-08-18T14:26:19;96974.19;;;36.05;24.30
71915;BME280;60387;49.994;14.660;2022-08-18T14:28:53;96978.09;;;35.93;24.80
71915;BME280;60387;49.994;14.660;2022-08-18T14:31:26;96976.13;;;35.85;25.19
71915;BME280;60387;49.994;14.660;2022-08-18T14:33:59;96971.06;;;35.74;24.99
71915;BME280;60387;49.994;14.660;2022-08-18T14:36:33;96967.28;;;35.63;25.20
71915;BME280;60387;49.994;14.660;2022-08-18T14:39:06;96954.91;;;35.60;25.06
71915;BME280;60387;49.994;14.660;2022-08-18T14:41:40;96958.03;;;35.62;25.30
71915;BME280;60387;49.994;14.660;2022-08-18T14:44:13;96960.78;;;35.71;25.13
71915;BME280;60387;49.994;14.660;2022-08-18T14:46:46;96965.66;;;35.85;25.61
71915;BME280;60387;49.994;14.660;2022-08-18T14:49:23;96969.84;;;35.90;25.04
71915;BME280;60387;49.994;14.660;2022-08-18T14:52:00;96944.06;;;35.82;25.34
71915;BME280;60387;49.994;14.660;2022-08-18T14:54:34;96956.31;;;35.94;25.25
71915;BME280;60387;49.994;14.660;2022-08-18T14:57:07;96955.53;;;35.93;25.11
71915;BME280;60387;49.994;14.660;2022-08-18T14:59:41;96957.47;;;35.87;25.18
71915;BME280;60387;49.994;14.660;2022-08-18T15:02:14;96956.31;;;35.79;24.95
71915;BME280;60387;49.994;14.660;2022-08-18T15:04:47;96962.94;;;35.76;24.83
71915;BME280;60387;49.994;14.660;2022-08-18T15:07:21;96953.13;;;35.72;25.31
71915;BME280;60387;49.994;14.660;2022-08-18T15:09:54;96947.94;;;35.70;25.06
71915;BME280;60387;49.994;14.660;2022-08-18T15:12:27;96953.78;;;35.67;25.00
71915;BME280;60387;49.994;14.660;2022-08-18T15:15:04;96948.81;;;35.62;25.10
71915;BME280;60387;49.994;14.660;2022-08-18T15:17:39;96943.72;;;35.51;25.51
71915;BME280;60387;49.994;14.660;2022-08-18T15:20:13;96947.91;;;35.41;25.40
71915;BME280;60387;49.994;14.660;2022-08-18T15:22:46;96931.84;;;35.33;25.53
71915;BME280;60387;49.994;14.660;2022-08-18T15:25:19;96932.53;;;35.28;25.65
71915;BME280;60387;49.994;14.660;2022-08-18T15:27:52;96917.56;;;35.22;25.95
71915;BME280;60387;49.994;14.660;2022-08-18T15:30:26;96929.91;;;35.25;25.65
71915;BME280;60387;49.994;14.660;2022-08-18T15:32:59;96921.13;;;35.22;25.95
71915;BME280;60387;49.994;14.660;2022-08-18T15:35:33;96920.09;;;35.20;26.09
71915;BME280;60387;49.994;14.660;2022-08-18T15:38:07;96912.25;;;35.15;26.08
71915;BME280;60387;49.994;14.660;2022-08-18T15:40:54;96916.81;;;35.13;25.50
71915;BME280;60387;49.994;14.660;2022-08-18T15:43:29;96906.41;;;35.04;25.52
71915;BME280;60387;49.994;14.660;2022-08-18T15:46:03;96897.06;;;34.98;25.79
71915;BME280;60387;49.994;14.660;2022-08-18T15:48:37;96888.81;;;34.95;26.19
71915;BME280;60387;49.994;14.660;2022-08-18T15:51:10;96895.41;;;34.92;26.39
71915;BME280;60387;49.994;14.660;2022-08-18T15:53:43;96887.50;;;34.81;25.99
71915;BME280;60387;49.994;14.660;2022-08-18T15:56:20;96888.00;;;34.71;26.00
71915;BME280;60387;49.994;14.660;2022-08-18T15:58:54;96875.56;;;34.63;26.42
71915;BME280;60387;49.994;14.660;2022-08-18T16:01:27;96873.44;;;34.58;26.50
71915;BME280;60387;49.994;14.660;2022-08-18T16:04:03;96871.25;;;34.53;26.75
71915;BME280;60387;49.994;14.660;2022-08-18T16:06:37;96867.88;;;34.49;26.81